Time;durP1;ratioP1;P1;durP2;ratioP2;P2;SDS_P1;SDS_P2;PMS_P1;PMS_P2;Temp;Humidity;BMP_temperature;BMP_pressure;BME280_temperature;BME280_humidity;BME280_pressure;Samples;Min_cycle;Max_cycle;Signal;HPM_P1;HPM_P2
2024/03/06 00:00:04;;;;;;;;;;;;;;;19.67;46.38;101533.75;2068487;28;2217;-65
2024/03/06 00:01:05;;;;;;;;;;;;;;;19.66;46.47;101530.13;2068298;28;6684;-67
2024/03/06 00:02:07;;;;;;;;;;;;;;;19.66;46.46;101533.00;2068079;28;2288;-66
2024/03/06 00:03:08;;;;;;;;;;;;;;;19.67;46.27;101533.75;2069504;28;2248;-66
2024/03/06 00:04:10;;;;;;;;;;;;;;;19.66;46.29;101535.88;2068787;28;1647;-66
2024/03/06 00:05:12;;;;;;;;;;;;;;;19.66;46.35;101530.13;2069344;28;2002;-66
2024/03/06 00:06:13;;;;;;;;;;;;;;;19.66;46.45;101538.75;2069334;28;1677;-66
2024/03/06 00:07:14;;;;;;;;;;;;;;;19.66;46.26;101529.41;2068766;28;2114;-66
2024/03/06 00:08:16;;;;;;;;;;;;;;;19.67;46.33;101539.50;2065527;28;2127;-66
2024/03/06 00:09:18;;;;;;;;;;;;;;;19.67;46.32;101539.50;2066476;28;2074;-66
2024/03/06 00:10:19;;;;;;;;;;;;;;;19.67;46.41;101539.50;2070962;28;2166;-66
2024/03/06 00:11:21;;;;;;;;;;;;;;;19.66;46.32;101541.63;2067910;28;2185;-66
2024/03/06 00:12:22;;;;;;;;;;;;;;;19.67;46.29;101542.38;2069269;28;1847;-66
2024/03/06 00:13:24;;;;;;;;;;;;;;;19.67;46.26;101546.00;2067821;28;1631;-66
2024/03/06 00:14:25;;;;;;;;;;;;;;;19.67;46.33;101551.00;2068506;28;2157;-66
2024/03/06 00:15:27;;;;;;;;;;;;;;;19.66;46.33;101550.25;2066835;28;2166;-66
2024/03/06 00:16:29;;;;;;;;;;;;;;;19.67;46.30;101548.13;2068941;28;1572;-66
2024/03/06 00:17:30;;;;;;;;;;;;;;;19.66;46.25;101556.00;2069923;28;1768;-65
2024/03/06 00:18:31;;;;;;;;;;;;;;;19.66;46.35;101547.38;2068573;28;1938;-65
2024/03/06 00:19:33;;;;;;;;;;;;;;;19.66;46.34;101552.38;2068918;28;2090;-65
2024/03/06 00:20:34;;;;;;;;;;;;;;;19.66;46.27;101552.38;2067934;28;1917;-66
2024/03/06 00:21:36;;;;;;;;;;;;;;;19.65;46.28;101548.78;2069507;28;1867;-66
2024/03/06 00:22:37;;;;;;;;;;;;;;;19.64;46.32;101550.13;2065274;28;2158;-66
2024/03/06 00:23:38;;;;;;;;;;;;;;;19.64;46.43;101555.88;2067694;28;1779;-66
2024/03/06 00:24:40;;;;;;;;;;;;;;;19.64;46.26;101553.00;2067676;28;2348;-66
2024/03/06 00:25:41;;;;;;;;;;;;;;;19.64;46.38;101553.00;2066633;28;2508;-66
2024/03/06 00:26:44;;;;;;;;;;;;;;;19.63;46.24;101557.25;2067881;28;2212;-66
2024/03/06 00:27:45;;;;;;;;;;;;;;;19.63;46.24;101557.25;2069001;28;2274;-66
2024/03/06 00:28:47;;;;;;;;;;;;;;;19.63;46.23;101551.53;2068282;28;1942;-66
2024/03/06 00:29:48;;;;;;;;;;;;;;;19.63;46.39;101563.00;2066992;28;2162;-66
2024/03/06 00:30:49;;;;;;;;;;;;;;;19.62;46.37;101555.00;2068323;28;6076;-66
2024/03/06 00:31:51;;;;;;;;;;;;;;;19.62;46.29;101561.50;2068791;28;1708;-66
2024/03/06 00:32:52;;;;;;;;;;;;;;;19.62;46.33;101555.75;2068751;28;2173;-66
2024/03/06 00:33:54;;;;;;;;;;;;;;;19.61;46.49;101562.88;2067963;28;1667;-66
2024/03/06 00:34:55;;;;;;;;;;;;;;;19.61;46.24;101562.13;2069044;28;1698;-66
2024/03/06 00:35:57;;;;;;;;;;;;;;;19.62;46.43;101560.75;2068039;28;1661;-66
2024/03/06 00:36:58;;;;;;;;;;;;;;;19.61;46.35;101565.75;2068719;28;2150;-65
2024/03/06 00:38:02;;;;;;;;;;;;;;;19.61;46.39;101571.50;2068140;28;2214;-66
2024/03/06 00:39:04;;;;;;;;;;;;;;;19.61;46.42;101571.50;2067783;28;2086;-66
2024/03/06 00:40:06;;;;;;;;;;;;;;;19.62;46.41;101569.38;2068879;28;2249;-66
2024/03/06 00:41:07;;;;;;;;;;;;;;;19.61;46.24;101571.50;2069117;28;1649;-66
2024/03/06 00:42:10;;;;;;;;;;;;;;;19.61;46.29;101565.75;2068451;28;2288;-66
2024/03/06 00:43:12;;;;;;;;;;;;;;;19.62;46.48;101567.25;2068445;28;2241;-66
2024/03/06 00:44:15;;;;;;;;;;;;;;;19.62;46.31;101573.00;2068584;28;2232;-66
2024/03/06 00:45:16;;;;;;;;;;;;;;;19.62;46.18;101573.00;2068208;28;2125;-65
2024/03/06 00:46:18;;;;;;;;;;;;;;;19.62;46.31;101572.25;2068522;28;1628;-65
2024/03/06 00:47:19;;;;;;;;;;;;;;;19.62;46.25;101575.84;2068941;28;1861;-66
2024/03/06 00:48:21;;;;;;;;;;;;;;;19.62;46.37;101572.25;2070682;28;1918;-66
2024/03/06 00:49:22;;;;;;;;;;;;;;;19.63;46.60;101573.72;2070024;28;1743;-65
2024/03/06 00:50:24;;;;;;;;;;;;;;;19.61;46.34;101574.38;2068986;28;2079;-66
2024/03/06 00:51:25;;;;;;;;;;;;;;;19.62;46.31;101578.72;2067607;28;2008;-66
2024/03/06 00:52:42;;;;;;;;;;;;;;;19.61;46.29;101577.25;2067303;28;2196;-66
2024/03/06 00:53:44;;;;;;;;;;;;;;;19.61;46.38;101577.25;2066880;28;2312;-66
2024/03/06 00:54:45;;;;;;;;;;;;;;;19.60;46.42;101575.72;2067584;28;1632;-66
2024/03/06 00:55:47;;;;;;;;;;;;;;;19.62;46.33;101578.00;2068049;28;2158;-66
2024/03/06 00:56:48;;;;;;;;;;;;;;;19.61;46.23;101580.13;2067430;28;1620;-65
2024/03/06 00:57:49;;;;;;;;;;;;;;;19.60;46.35;101581.47;2068704;28;2288;-66
2024/03/06 00:58:51;;;;;;;;;;;;;;;19.60;46.36;101581.47;2069046;28;2293;-66
2024/03/06 00:59:52;;;;;;;;;;;;;;;19.60;46.27;101584.34;2067674;28;1798;-66
2024/03/06 01:00:53;;;;;;;;;;;;;;;19.59;46.16;101582.88;2067675;28;6242;-66
2024/03/06 01:01:58;;;;;;;;;;;;;;;19.60;46.38;101586.47;2069890;28;1735;-65
2024/03/06 01:02:59;;;;;;;;;;;;;;;19.59;46.14;101585.00;2068704;28;1666;-66
2024/03/06 01:04:00;;;;;;;;;;;;;;;19.60;46.40;101584.34;2067038;28;2087;-67
2024/03/06 01:05:03;;;;;;;;;;;;;;;19.59;46.43;101582.13;2068439;28;2410;-66
2024/03/06 01:06:05;;;;;;;;;;;;;;;19.59;46.40;101585.00;2068193;28;2597;-66
2024/03/06 01:07:06;;;;;;;;;;;;;;;19.58;46.40;101584.22;2067394;28;2122;-66
2024/03/06 01:08:07;;;;;;;;;;;;;;;19.58;46.29;101589.97;2066898;28;2332;-66
2024/03/06 01:09:09;;;;;;;;;;;;;;;19.58;46.21;101589.22;2068353;28;2024;-65
2024/03/06 01:10:10;;;;;;;;;;;;;;;19.58;46.17;101589.97;2068807;28;2161;-66
2024/03/06 01:11:14;;;;;;;;;;;;;;;19.58;46.40;101592.84;2067950;28;1770;-66
2024/03/06 01:12:15;;;;;;;;;;;;;;;19.59;46.34;101591.50;2068347;28;1675;-66
2024/03/06 01:13:17;;;;;;;;;;;;;;;19.58;46.33;101584.22;2069119;28;2181;-65
2024/03/06 01:14:19;;;;;;;;;;;;;;;19.58;46.28;101594.97;2068210;28;1692;-66
2024/03/06 01:15:20;;;;;;;;;;;;;;;19.59;46.24;101594.34;2067906;28;2150;-66
2024/03/06 01:16:21;;;;;;;;;;;;;;;19.59;46.26;101594.34;2067933;28;1676;-66
2024/03/06 01:17:23;;;;;;;;;;;;;;;19.60;46.27;101597.97;2069951;28;2234;-66
2024/03/06 01:18:25;;;;;;;;;;;;;;;19.59;46.26;101591.50;2068853;28;1637;-66
2024/03/06 01:19:26;;;;;;;;;;;;;;;19.58;46.27;101587.09;2067718;28;1830;-66
2024/03/06 01:20:27;;;;;;;;;;;;;;;19.60;46.19;101595.09;2067690;28;2138;-66
2024/03/06 01:21:29;;;;;;;;;;;;;;;19.60;46.33;101590.09;2069696;28;1664;-65
2024/03/06 01:22:30;;;;;;;;;;;;;;;19.60;46.34;101595.09;2067672;28;2281;-66
2024/03/06 01:23:32;;;;;;;;;;;;;;;19.60;46.16;101595.09;2067943;28;1580;-66
2024/03/06 01:24:33;;;;;;;;;;;;;;;19.60;46.32;101595.84;2067319;28;2282;-65
2024/03/06 01:25:34;;;;;;;;;;;;;;;19.60;46.29;101604.47;2069266;28;1654;-66
2024/03/06 01:26:36;;;;;;;;;;;;;;;19.59;46.06;101597.22;2067232;28;2301;-66
2024/03/06 01:27:37;;;;;;;;;;;;;;;19.59;46.15;101597.22;2067337;28;2259;-66
2024/03/06 01:28:38;;;;;;;;;;;;;;;19.60;46.13;101597.97;2068205;28;2276;-66
2024/03/06 01:29:40;;;;;;;;;;;;;;;19.60;46.09;101595.09;2068262;28;1772;-66
2024/03/06 01:30:41;;;;;;;;;;;;;;;19.59;46.22;101590.75;2067459;28;6129;-65
2024/03/06 01:31:46;;;;;;;;;;;;;;;19.59;46.19;101597.22;2067955;28;1616;-66
2024/03/06 01:32:47;;;;;;;;;;;;;;;19.58;46.06;101604.34;2068108;28;1609;-65
2024/03/06 01:33:49;;;;;;;;;;;;;;;19.57;46.20;101605.72;2068327;28;1695;-65
2024/03/06 01:34:50;;;;;;;;;;;;;;;19.57;46.30;101599.97;2067739;28;1648;-66
2024/03/06 01:35:52;;;;;;;;;;;;;;;19.58;46.08;101606.47;2067960;28;1656;-65
2024/03/06 01:36:53;;;;;;;;;;;;;;;19.57;46.18;101599.97;2067920;28;2260;-66
2024/03/06 01:37:54;;;;;;;;;;;;;;;19.57;46.13;101605.72;2068873;28;2017;-66
2024/03/06 01:38:56;;;;;;;;;;;;;;;19.56;46.13;101604.25;2069054;28;1676;-65
2024/03/06 01:39:57;;;;;;;;;;;;;;;19.56;46.06;101604.25;2067281;28;2146;-66
2024/03/06 01:40:59;;;;;;;;;;;;;;;19.56;46.29;101603.47;2068846;28;1608;-66
2024/03/06 01:42:00;;;;;;;;;;;;;;;19.56;46.21;101604.25;2068089;28;1663;-66
2024/03/06 01:43:02;;;;;;;;;;;;;;;19.56;46.24;101604.25;2068000;28;1900;-66
2024/03/06 01:44:03;;;;;;;;;;;;;;;19.56;46.01;101604.25;2068286;28;1799;-66
2024/03/06 01:45:05;;;;;;;;;;;;;;;19.56;46.16;101610.00;2067563;28;2122;-65
2024/03/06 01:46:06;;;;;;;;;;;;;;;19.56;46.10;101606.34;2068802;28;2501;-66
2024/03/06 01:47:08;;;;;;;;;;;;;;;19.57;46.21;101607.84;2067593;28;2141;-66
2024/03/06 01:48:09;;;;;;;;;;;;;;;19.56;46.11;101609.22;2068816;28;1713;-66
2024/03/06 01:49:15;;;;;;;;;;;;;;;19.56;46.15;101612.84;2067492;28;2193;-66
2024/03/06 01:50:29;;;;;;;;;;;;;;;19.57;46.12;101619.34;2066326;28;2285;-66
2024/03/06 01:51:31;;;;;;;;;;;;;;;19.57;46.12;101622.97;2068263;28;2241;-66
2024/03/06 01:52:32;;;;;;;;;;;;;;;19.58;46.21;101612.22;2066909;28;1761;-66
2024/03/06 01:53:34;;;;;;;;;;;;;;;19.57;46.18;101614.34;2067881;28;2166;-66
2024/03/06 01:54:35;;;;;;;;;;;;;;;19.57;46.18;101614.34;2067367;28;1619;-65
2024/03/06 01:55:37;;;;;;;;;;;;;;;19.57;46.15;101617.22;2069079;28;1575;-66
2024/03/06 01:56:44;;;;;;;;;;;;;;;19.58;46.09;101618.69;2068302;28;1552;-66
2024/03/06 01:57:45;;;;;;;;;;;;;;;19.57;46.32;101620.09;2066772;28;1917;-66
2024/03/06 01:58:47;;;;;;;;;;;;;;;19.56;46.22;101618.59;2067165;28;2182;-66
2024/03/06 01:59:48;;;;;;;;;;;;;;;19.57;46.06;101614.34;2067359;28;2019;-66
2024/03/06 02:00:50;;;;;;;;;;;;;;;19.57;46.17;101617.22;2065464;28;6295;-66
2024/03/06 02:01:54;;;;;;;;;;;;;;;19.56;46.22;101615.72;2067644;28;2202;-65
2024/03/06 02:02:56;;;;;;;;;;;;;;;19.57;46.06;101619.34;2068287;28;2253;-66
2024/03/06 02:03:58;;;;;;;;;;;;;;;19.56;46.23;101620.72;2068732;28;1675;-65
2024/03/06 02:05:00;;;;;;;;;;;;;;;19.56;46.12;101621.47;2067826;28;2111;-66
2024/03/06 02:06:02;;;;;;;;;;;;;;;19.56;46.04;101624.34;2067128;28;2037;-65
2024/03/06 02:07:07;;;;;;;;;;;;;;;19.55;46.13;101619.22;2064893;28;2563;-66
2024/03/06 02:08:09;;;;;;;;;;;;;;;19.55;46.22;101622.09;2067439;28;2252;-66
2024/03/06 02:09:12;;;;;;;;;;;;;;;19.55;45.93;101625.72;2068242;28;1918;-65
2024/03/06 02:10:13;;;;;;;;;;;;;;;19.55;46.18;101622.84;2068018;28;1794;-66
2024/03/06 02:11:16;;;;;;;;;;;;;;;19.55;46.09;101619.22;2064598;28;2020;-66
2024/03/06 02:12:18;;;;;;;;;;;;;;;19.54;46.10;101612.72;2068085;28;1778;-66
2024/03/06 02:13:19;;;;;;;;;;;;;;;19.53;46.28;101621.97;2068464;28;1970;-65
2024/03/06 02:14:21;;;;;;;;;;;;;;;19.54;46.13;101626.31;2069577;28;1673;-66
2024/03/06 02:15:23;;;;;;;;;;;;;;;19.53;46.17;101619.84;2067030;28;2213;-66
2024/03/06 02:16:25;;;;;;;;;;;;;;;19.53;46.21;101622.72;2067983;28;1685;-66
2024/03/06 02:17:29;;;;;;;;;;;;;;;19.54;46.14;101623.44;2065508;28;2175;-65
2024/03/06 02:18:31;;;;;;;;;;;;;;;19.54;46.10;101618.47;2068640;28;1689;-65
2024/03/06 02:19:39;;;;;;;;;;;;;;;19.53;46.16;101619.84;2067562;28;1785;-66
2024/03/06 02:20:41;;;;;;;;;;;;;;;19.53;46.13;101619.84;2068806;28;1645;-66
2024/03/06 02:21:42;;;;;;;;;;;;;;;19.53;46.07;101625.56;2068252;28;1650;-66
2024/03/06 02:22:44;;;;;;;;;;;;;;;19.54;46.11;101623.44;2067327;28;1684;-65
2024/03/06 02:23:45;;;;;;;;;;;;;;;19.54;45.95;101629.19;2067008;28;1613;-65
2024/03/06 02:24:48;;;;;;;;;;;;;;;19.54;46.09;101632.06;2066118;28;1579;-66
2024/03/06 02:25:50;;;;;;;;;;;;;;;19.54;46.13;101624.22;2067355;28;1733;-66
2024/03/06 02:26:51;;;;;;;;;;;;;;;19.53;46.07;101619.84;2066224;28;2184;-66
2024/03/06 02:27:52;;;;;;;;;;;;;;;19.54;46.01;101629.97;2067495;28;2158;-65
2024/03/06 02:28:54;;;;;;;;;;;;;;;19.54;46.13;101624.22;2064758;28;1677;-66
2024/03/06 02:29:56;;;;;;;;;;;;;;;19.54;45.95;101620.56;2065293;28;1902;-66
2024/03/06 02:30:57;;;;;;;;;;;;;;;19.54;46.10;101624.22;2064503;28;6268;-66
2024/03/06 02:31:59;;;;;;;;;;;;;;;19.55;46.07;101625.72;2065864;28;2153;-66
2024/03/06 02:33:00;;;;;;;;;;;;;;;19.54;46.13;101624.22;2067575;28;2519;-66
2024/03/06 02:34:06;;;;;;;;;;;;;;;19.54;46.01;101629.97;2066364;28;2138;-66
2024/03/06 02:35:08;;;;;;;;;;;;;;;19.54;45.94;101632.84;2066530;28;2189;-65
2024/03/06 02:36:13;;;;;;;;;;;;;;;19.54;46.11;101634.94;2068803;28;2213;-66
2024/03/06 02:37:14;;;;;;;;;;;;;;;19.54;45.99;101623.44;2067824;28;2106;-65
2024/03/06 02:38:16;;;;;;;;;;;;;;;19.52;46.07;101626.97;2068817;28;2562;-65
2024/03/06 02:39:17;;;;;;;;;;;;;;;19.53;46.05;101628.44;2066696;28;2206;-66
2024/03/06 02:40:18;;;;;;;;;;;;;;;19.53;45.90;101627.72;2065801;28;2118;-66
2024/03/06 02:41:20;;;;;;;;;;;;;;;19.52;46.03;101626.97;2067920;28;2181;-65
2024/03/06 02:42:21;;;;;;;;;;;;;;;19.52;46.10;101621.22;2067205;28;2178;-66
2024/03/06 02:43:23;;;;;;;;;;;;;;;19.52;46.04;101626.97;2068566;28;2128;-65
2024/03/06 02:44:24;;;;;;;;;;;;;;;19.51;46.03;101631.19;2069453;28;1772;-66
2024/03/06 02:45:26;;;;;;;;;;;;;;;19.51;46.02;101628.31;2066283;28;2287;-66
2024/03/06 02:46:27;;;;;;;;;;;;;;;19.51;46.03;101625.44;2068398;28;2173;-66
2024/03/06 02:47:28;;;;;;;;;;;;;;;19.51;46.09;101613.22;2069440;28;2008;-66
2024/03/06 02:48:30;;;;;;;;;;;;;;;19.51;45.91;101625.44;2067303;28;1656;-66
2024/03/06 02:49:31;;;;;;;;;;;;;;;19.51;46.08;101627.56;2067967;28;2181;-65
2024/03/06 02:50:32;;;;;;;;;;;;;;;19.50;46.11;101632.59;2066077;28;2217;-66
2024/03/06 02:51:34;;;;;;;;;;;;;;;19.50;46.03;101635.47;2067482;28;2161;-65
2024/03/06 02:52:35;;;;;;;;;;;;;;;19.50;45.95;101635.47;2067080;28;2242;-66
2024/03/06 02:53:36;;;;;;;;;;;;;;;19.50;46.10;101623.97;2067515;28;1640;-66
2024/03/06 02:54:40;;;;;;;;;;;;;;;19.51;45.99;101624.72;2066896;28;2160;-66
2024/03/06 02:55:41;;;;;;;;;;;;;;;19.52;45.93;101629.09;2067299;28;2193;-65
2024/03/06 02:56:43;;;;;;;;;;;;;;;19.50;45.90;101635.47;2067952;28;1632;-66
2024/03/06 02:57:44;;;;;;;;;;;;;;;19.51;45.84;101627.56;2065909;28;2154;-66
2024/03/06 02:58:46;;;;;;;;;;;;;;;19.51;45.92;101625.44;2066718;28;1794;-65
2024/03/06 02:59:47;;;;;;;;;;;;;;;19.51;45.91;101631.19;2067988;28;2174;-66
2024/03/06 03:00:49;;;;;;;;;;;;;;;19.50;45.93;101626.84;2067719;28;6242;-66
2024/03/06 03:01:50;;;;;;;;;;;;;;;19.52;45.88;101626.97;2068375;28;1637;-65
2024/03/06 03:02:52;;;;;;;;;;;;;;;19.51;45.87;101631.19;2067120;28;1699;-65
2024/03/06 03:03:53;;;;;;;;;;;;;;;19.52;45.92;101632.72;2067130;28;2368;-66
2024/03/06 03:04:54;;;;;;;;;;;;;;;19.51;45.92;101631.19;2066928;28;2237;-66
2024/03/06 03:05:56;;;;;;;;;;;;;;;19.50;45.87;101629.72;2067974;28;2266;-66
2024/03/06 03:06:58;;;;;;;;;;;;;;;19.50;45.99;101634.72;2066834;28;1680;-66
2024/03/06 03:07:59;;;;;;;;;;;;;;;19.51;45.91;101636.94;2066928;28;2154;-66
2024/03/06 03:09:02;;;;;;;;;;;;;;;19.51;45.90;101641.94;2068640;28;2249;-66
2024/03/06 03:10:04;;;;;;;;;;;;;;;19.50;46.01;101641.19;2067233;28;1898;-66
2024/03/06 03:11:07;;;;;;;;;;;;;;;19.50;45.94;101646.94;2066739;28;2276;-66
2024/03/06 03:12:11;;;;;;;;;;;;;;;19.50;46.04;101646.19;2067211;28;2258;-65
2024/03/06 03:13:12;;;;;;;;;;;;;;;19.49;45.96;101645.44;2067015;28;1617;-66
2024/03/06 03:14:13;;;;;;;;;;;;;;;19.48;46.04;101646.06;2066182;28;1625;-66
2024/03/06 03:15:15;;;;;;;;;;;;;;;19.49;45.97;101645.44;2067305;28;2083;-65
2024/03/06 03:16:17;;;;;;;;;;;;;;;19.47;45.85;101648.19;2066062;28;2235;-66
2024/03/06 03:17:22;;;;;;;;;;;;;;;19.49;45.98;101647.56;2067492;28;2175;-65
2024/03/06 03:18:23;;;;;;;;;;;;;;;19.48;45.99;101655.44;2067108;28;1879;-66
2024/03/06 03:19:25;;;;;;;;;;;;;;;19.47;45.87;101648.19;2067076;28;1925;-66
2024/03/06 03:20:26;;;;;;;;;;;;;;;19.47;45.89;101653.94;2068112;28;1727;-66
2024/03/06 03:21:27;;;;;;;;;;;;;;;19.46;45.96;101650.31;2068674;28;1759;-66
2024/03/06 03:22:29;;;;;;;;;;;;;;;19.45;45.85;101654.56;2069483;28;2127;-66
2024/03/06 03:23:30;;;;;;;;;;;;;;;19.46;45.95;101650.31;2068781;28;2191;-65
2024/03/06 03:24:31;;;;;;;;;;;;;;;19.46;45.94;101652.44;2068359;28;2044;-65
2024/03/06 03:25:33;;;;;;;;;;;;;;;19.47;45.92;101653.94;2067673;28;2051;-65
2024/03/06 03:26:34;;;;;;;;;;;;;;;19.46;45.92;101661.78;2069250;28;2068;-66
2024/03/06 03:27:36;;;;;;;;;;;;;;;19.46;45.91;101658.19;2069274;28;1875;-66
2024/03/06 03:28:39;;;;;;;;;;;;;;;19.46;45.95;101658.19;2069564;28;1779;-65
2024/03/06 03:29:41;;;;;;;;;;;;;;;19.45;45.80;101651.69;2069739;28;1631;-66
2024/03/06 03:30:44;;;;;;;;;;;;;;;19.47;45.96;101665.44;2067489;28;6188;-65
2024/03/06 03:31:45;;;;;;;;;;;;;;;19.48;45.87;101669.78;2068981;28;1639;-65
2024/03/06 03:32:47;;;;;;;;;;;;;;;19.46;45.97;101661.03;2066676;28;1681;-66
2024/03/06 03:33:48;;;;;;;;;;;;;;;19.47;45.93;101671.19;2069427;28;1694;-65
2024/03/06 03:34:50;;;;;;;;;;;;;;;19.47;45.86;101671.19;2068761;28;2095;-65
2024/03/06 03:35:51;;;;;;;;;;;;;;;19.47;45.93;101662.56;2068729;28;2216;-66
2024/03/06 03:36:52;;;;;;;;;;;;;;;19.47;45.88;101665.44;2067080;28;1989;-66
2024/03/06 03:37:55;;;;;;;;;;;;;;;19.47;45.91;101662.56;2069376;28;1693;-65
2024/03/06 03:38:56;;;;;;;;;;;;;;;19.47;46.05;101671.19;2069141;28;1706;-66
2024/03/06 03:39:58;;;;;;;;;;;;;;;19.47;45.91;101665.44;2068712;28;2067;-66
2024/03/06 03:40:59;;;;;;;;;;;;;;;19.47;45.80;101662.56;2067765;28;2111;-65
2024/03/06 03:42:01;;;;;;;;;;;;;;;19.46;45.76;101664.66;2067290;28;2092;-65
2024/03/06 03:43:06;;;;;;;;;;;;;;;19.46;45.87;101666.78;2068138;28;2127;-65
2024/03/06 03:44:07;;;;;;;;;;;;;;;19.47;45.95;101671.19;2069609;28;1659;-66
2024/03/06 03:45:09;;;;;;;;;;;;;;;19.46;45.89;101663.91;2066659;28;2027;-66
2024/03/06 03:46:10;;;;;;;;;;;;;;;19.47;45.73;101671.19;2069355;28;2130;-66
2024/03/06 03:47:12;;;;;;;;;;;;;;;19.46;45.90;101663.91;2069130;28;1626;-65
2024/03/06 03:48:14;;;;;;;;;;;;;;;19.45;45.89;101663.19;2068845;28;2222;-65
2024/03/06 03:49:16;;;;;;;;;;;;;;;19.47;45.96;101671.19;2068331;28;2072;-71
2024/03/06 03:50:17;;;;;;;;;;;;;;;19.47;45.85;101671.19;2069345;28;2004;-77
2024/03/06 03:51:19;;;;;;;;;;;;;;;19.48;45.93;101666.19;2070829;28;1669;-71
2024/03/06 03:52:20;;;;;;;;;;;;;;;19.46;45.94;101676.16;2068987;28;2182;-69
2024/03/06 03:53:21;;;;;;;;;;;;;;;19.48;45.87;101677.66;2068760;28;2095;-68
2024/03/06 03:54:23;;;;;;;;;;;;;;;19.49;45.86;101676.28;2069633;28;1914;-68
2024/03/06 03:55:24;;;;;;;;;;;;;;;19.48;45.69;101672.66;2069393;28;1926;-69
2024/03/06 03:56:26;;;;;;;;;;;;;;;19.48;45.92;101678.41;2068328;28;1999;-68
2024/03/06 03:57:28;;;;;;;;;;;;;;;19.49;45.81;101679.16;2067875;28;1908;-68
2024/03/06 03:58:29;;;;;;;;;;;;;;;19.49;45.83;101671.28;2069291;28;1589;-68
2024/03/06 03:59:30;;;;;;;;;;;;;;;19.48;45.97;101678.41;2069098;28;1620;-69
2024/03/06 04:00:32;;;;;;;;;;;;;;;19.47;45.62;101674.06;2066287;28;6245;-69
2024/03/06 04:01:34;;;;;;;;;;;;;;;19.49;45.87;101674.16;2067155;28;2088;-68
2024/03/06 04:02:35;;;;;;;;;;;;;;;19.50;45.90;101680.66;2070144;28;1624;-68
2024/03/06 04:03:37;;;;;;;;;;;;;;;19.49;45.92;101685.66;2066765;28;1657;-68
2024/03/06 04:04:38;;;;;;;;;;;;;;;19.50;45.95;101678.53;2067716;28;1977;-68
2024/03/06 04:05:39;;;;;;;;;;;;;;;19.50;45.85;101687.16;2069414;28;1746;-69
2024/03/06 04:06:41;;;;;;;;;;;;;;;19.51;45.87;101687.91;2069472;28;2055;-68
2024/03/06 04:07:42;;;;;;;;;;;;;;;19.50;46.03;101681.41;2068664;28;1632;-68
2024/03/06 04:08:44;;;;;;;;;;;;;;;19.51;45.84;101677.16;2068104;28;1697;-68
2024/03/06 04:09:45;;;;;;;;;;;;;;;19.50;45.83;101678.53;2067925;28;1624;-67
2024/03/06 04:10:46;;;;;;;;;;;;;;;19.52;45.89;101675.81;2066688;28;1950;-69
2024/03/06 04:11:48;;;;;;;;;;;;;;;19.52;46.03;101684.41;2066984;28;2101;-68
2024/03/06 04:12:49;;;;;;;;;;;;;;;19.52;46.07;101687.28;2068942;28;1719;-68
2024/03/06 04:13:51;;;;;;;;;;;;;;;19.52;46.06;101684.41;2068371;28;2305;-69
2024/03/06 04:14:53;;;;;;;;;;;;;;;19.52;46.11;101681.53;2068386;28;1581;-69
2024/03/06 04:15:54;;;;;;;;;;;;;;;19.52;45.99;101689.41;2068224;28;2170;-69
2024/03/06 04:16:56;;;;;;;;;;;;;;;19.52;45.97;101689.41;2069041;28;2077;-69
2024/03/06 04:17:57;;;;;;;;;;;;;;;19.52;46.07;101690.16;2068595;28;1728;-68
2024/03/06 04:18:58;;;;;;;;;;;;;;;19.52;46.05;101687.28;2068484;28;1644;-68
2024/03/06 04:20:00;;;;;;;;;;;;;;;19.52;46.07;101684.41;2071642;28;1725;-68
2024/03/06 04:21:04;;;;;;;;;;;;;;;19.52;46.02;101687.28;2068118;28;2027;-68
2024/03/06 04:22:05;;;;;;;;;;;;;;;19.51;46.11;101688.66;2067644;28;1785;-68
2024/03/06 04:23:07;;;;;;;;;;;;;;;19.51;46.04;101688.66;2069058;28;2020;-68
2024/03/06 04:24:08;;;;;;;;;;;;;;;19.51;46.08;101687.91;2068227;28;2056;-68
2024/03/06 04:25:10;;;;;;;;;;;;;;;19.50;46.02;101692.91;2068929;28;1925;-68
2024/03/06 04:26:11;;;;;;;;;;;;;;;19.51;45.90;101688.66;2067556;28;2028;-68
2024/03/06 04:27:13;;;;;;;;;;;;;;;19.50;45.90;101692.91;2068815;28;2312;-68
2024/03/06 04:28:14;;;;;;;;;;;;;;;19.51;46.03;101693.66;2067406;28;1779;-68
2024/03/06 04:29:15;;;;;;;;;;;;;;;19.49;46.03;101685.66;2068119;28;2114;-69
2024/03/06 04:30:17;;;;;;;;;;;;;;;19.50;45.97;101687.16;2067664;28;6111;-68
2024/03/06 04:31:19;;;;;;;;;;;;;;;19.50;46.06;101687.16;2067107;28;2123;-68
2024/03/06 04:32:20;;;;;;;;;;;;;;;19.50;46.01;101689.28;2069148;28;2189;-68
2024/03/06 04:33:22;;;;;;;;;;;;;;;19.50;46.04;101687.16;2068186;28;1742;-68
2024/03/06 04:34:23;;;;;;;;;;;;;;;19.50;46.03;101698.66;2067181;28;2131;-68
2024/03/06 04:35:25;;;;;;;;;;;;;;;19.49;46.07;101691.38;2068321;28;2271;-68
2024/03/06 04:36:26;;;;;;;;;;;;;;;19.50;46.05;101700.78;2067135;28;2169;-68
2024/03/06 04:37:29;;;;;;;;;;;;;;;19.50;46.14;101698.66;2068121;28;2126;-69
2024/03/06 04:38:31;;;;;;;;;;;;;;;19.51;45.99;101705.16;2069084;28;1664;-69
2024/03/06 04:39:32;;;;;;;;;;;;;;;19.51;46.08;101693.66;2068460;28;1886;-68
2024/03/06 04:40:34;;;;;;;;;;;;;;;19.50;46.08;101698.66;2069104;28;1664;-68
2024/03/06 04:41:35;;;;;;;;;;;;;;;19.51;46.04;101700.13;2067990;28;1740;-68
2024/03/06 04:42:37;;;;;;;;;;;;;;;19.51;46.12;101694.41;2067570;28;1937;-68
2024/03/06 04:43:38;;;;;;;;;;;;;;;19.52;46.00;101689.41;2068398;28;1987;-68
2024/03/06 04:44:40;;;;;;;;;;;;;;;19.51;45.93;101690.78;2068487;28;2095;-68
2024/03/06 04:45:41;;;;;;;;;;;;;;;19.52;46.11;101695.91;2067425;28;1784;-68
2024/03/06 04:46:42;;;;;;;;;;;;;;;19.51;46.13;101700.13;2067838;28;2144;-69
2024/03/06 04:47:44;;;;;;;;;;;;;;;19.52;46.17;101701.66;2067952;28;1663;-68
2024/03/06 04:48:47;;;;;;;;;;;;;;;19.53;46.13;101702.41;2066536;28;2086;-68
2024/03/06 04:49:49;;;;;;;;;;;;;;;19.52;46.05;101695.91;2068265;28;1629;-68
2024/03/06 04:50:51;;;;;;;;;;;;;;;19.53;46.01;101705.28;2067973;28;2095;-68
2024/03/06 04:51:52;;;;;;;;;;;;;;;19.53;46.19;101697.41;2068203;28;2024;-68
2024/03/06 04:52:54;;;;;;;;;;;;;;;19.54;46.24;101698.16;2067380;28;1969;-69
2024/03/06 04:53:55;;;;;;;;;;;;;;;19.54;46.08;101704.66;2068534;28;2075;-68
2024/03/06 04:54:56;;;;;;;;;;;;;;;19.55;46.21;101705.41;2065533;28;2177;-68
2024/03/06 04:55:58;;;;;;;;;;;;;;;19.54;46.12;101704.66;2068576;28;2178;-68
2024/03/06 04:56:59;;;;;;;;;;;;;;;19.54;46.19;101704.66;2066619;28;2404;-69
2024/03/06 04:58:00;;;;;;;;;;;;;;;19.55;46.21;101700.41;2067162;28;2455;-68
2024/03/06 04:59:03;;;;;;;;;;;;;;;19.54;46.18;101706.75;2068150;28;2048;-68
2024/03/06 05:00:08;;;;;;;;;;;;;;;19.54;46.13;101710.41;2068017;28;6068;-68
2024/03/06 05:01:09;;;;;;;;;;;;;;;19.52;45.99;101707.41;2068037;28;2106;-68
2024/03/06 05:02:11;;;;;;;;;;;;;;;19.53;46.07;101717.50;2068953;28;2420;-68
2024/03/06 05:03:12;;;;;;;;;;;;;;;19.53;46.01;101711.75;2075722;28;2171;-69
2024/03/06 05:04:32;;;;;;;;;;;;;;;19.52;46.16;101715.28;2072389;28;2035;-70
2024/03/06 05:05:51;;;;;;;;;;;;;;;19.50;46.40;101715.88;2067820;28;2095;-71
2024/03/06 05:07:10;;;;;;;;;;;;;;;19.52;46.19;101716.03;2068974;28;1624;-71
2024/03/06 05:08:29;;;;;;;;;;;;;;;19.55;46.10;101716.91;2067164;28;2008;-75
2024/03/06 05:09:48;;;;;;;;;;;;;;;19.61;46.22;101720.91;2066930;28;2396;-68
2024/03/06 05:11:07;;;;;;;;;;;;;;;19.66;46.23;101716.91;2066661;28;2471;-71
2024/03/06 05:12:27;;;;;;;;;;;;;;;19.67;46.00;101718.41;2066861;28;2507;-71
2024/03/06 05:13:45;;;;;;;;;;;;;;;19.76;45.93;101722.56;2067391;28;2412;-69
2024/03/06 05:15:05;;;;;;;;;;;;;;;19.72;45.68;101707.94;2067536;28;2491;-70
2024/03/06 05:16:23;;;;;;;;;;;;;;;19.66;45.61;101716.91;2066688;28;2503;-70
2024/03/06 05:17:43;;;;;;;;;;;;;;;19.63;45.63;101718.16;2066205;28;2949;-69
2024/03/06 05:19:02;;;;;;;;;;;;;;;19.60;45.71;101719.38;2066577;28;2706;-70
2024/03/06 05:20:20;;;;;;;;;;;;;;;19.59;45.64;101732.28;2066489;28;2441;-70
2024/03/06 05:21:39;;;;;;;;;;;;;;;19.58;45.68;101727.13;2065659;28;2451;-70
2024/03/06 05:22:58;;;;;;;;;;;;;;;19.57;45.77;101726.41;2066145;28;2365;-70
2024/03/06 05:24:17;;;;;;;;;;;;;;;19.57;45.67;101729.25;2066441;28;2374;-71
2024/03/06 05:25:36;;;;;;;;;;;;;;;19.57;45.77;101731.41;2067533;28;2468;-70
2024/03/06 05:26:54;;;;;;;;;;;;;;;19.62;46.33;101728.16;2065584;28;2408;-70